Terminal Aerodrome Forecast
Issued by NWS

Home | Current Version | Previous Version | Graphics & Text | Print | Product List | Glossary On
Versions: 1 2 3 4 5 6 7 8 9 10 11 12 13 14 15 16 17 18 19 20 21 22 23 24 25 26 27 28 29 30 31 32 33 34 35
000
FTUS43 KLOT 300200 AAA
TAFMDW
TAF AMD
KMDW 300205Z 3002/3024 03014G21KT P6SM BKN010
      TEMPO 3003/3007 5SM -RA BR
     FM300900 03011KT 6SM BR SCT007 OVC010
     FM301400 01007KT P6SM BKN015
     FM302100 06009KT P6SM BKN018=

USA.gov is the U.S. government's official web portal to all federal, state and local government web resources and services.